sensor_id;sensor_type;location;lat;lon;timestamp;P1;durP1;ratioP1;P2;durP2;ratioP2
71162;SDS011;58858;50.948;6.566;2022-09-24T00:08:59;11.85;;;5.32;;
71162;SDS011;58858;50.948;6.566;2022-09-24T00:19:01;10.77;;;6.45;;
71162;SDS011;58858;50.948;6.566;2022-09-24T00:29:03;11.98;;;6.45;;
71162;SDS011;58858;50.948;6.566;2022-09-24T00:39:05;10.55;;;6.13;;
71162;SDS011;58858;50.948;6.566;2022-09-24T00:49:11;11.43;;;6.55;;
71162;SDS011;58858;50.948;6.566;2022-09-24T00:59:14;9.00;;;6.13;;
71162;SDS011;58858;50.948;6.566;2022-09-24T01:09:18;8.93;;;6.40;;
71162;SDS011;58858;50.948;6.566;2022-09-24T01:30:06;7.63;;;5.68;;
71162;SDS011;58858;50.948;6.566;2022-09-24T01:40:10;8.50;;;5.22;;
71162;SDS011;58858;50.948;6.566;2022-09-24T01:50:14;10.18;;;6.07;;
71162;SDS011;58858;50.948;6.566;2022-09-24T02:00:18;17.03;;;5.83;;
71162;SDS011;58858;50.948;6.566;2022-09-24T02:10:21;12.95;;;5.88;;
71162;SDS011;58858;50.948;6.566;2022-09-24T02:20:22;18.15;;;5.75;;
71162;SDS011;58858;50.948;6.566;2022-09-24T02:30:25;10.68;;;5.28;;
71162;SDS011;58858;50.948;6.566;2022-09-24T02:40:26;6.88;;;3.92;;
71162;SDS011;58858;50.948;6.566;2022-09-24T02:50:27;10.95;;;5.25;;
71162;SDS011;58858;50.948;6.566;2022-09-24T03:00:28;7.88;;;5.05;;
71162;SDS011;58858;50.948;6.566;2022-09-24T03:10:30;9.80;;;5.43;;
71162;SDS011;58858;50.948;6.566;2022-09-24T03:20:31;8.88;;;5.95;;
71162;SDS011;58858;50.948;6.566;2022-09-24T03:30:33;10.27;;;5.60;;
71162;SDS011;58858;50.948;6.566;2022-09-24T03:40:52;9.07;;;6.40;;
71162;SDS011;58858;50.948;6.566;2022-09-24T03:50:53;10.05;;;6.43;;
71162;SDS011;58858;50.948;6.566;2022-09-24T04:00:54;9.63;;;6.90;;
71162;SDS011;58858;50.948;6.566;2022-09-24T04:10:56;13.32;;;8.27;;
71162;SDS011;58858;50.948;6.566;2022-09-24T04:21:01;13.45;;;6.47;;
71162;SDS011;58858;50.948;6.566;2022-09-24T04:31:02;12.15;;;6.50;;
71162;SDS011;58858;50.948;6.566;2022-09-24T04:41:06;21.48;;;9.10;;
71162;SDS011;58858;50.948;6.566;2022-09-24T04:51:08;16.20;;;8.07;;
71162;SDS011;58858;50.948;6.566;2022-09-24T05:01:10;10.63;;;7.00;;
71162;SDS011;58858;50.948;6.566;2022-09-24T05:11:12;7.88;;;5.25;;
71162;SDS011;58858;50.948;6.566;2022-09-24T05:21:13;10.90;;;7.32;;
71162;SDS011;58858;50.948;6.566;2022-09-24T05:31:15;10.60;;;5.38;;
71162;SDS011;58858;50.948;6.566;2022-09-24T05:41:16;13.50;;;6.25;;
71162;SDS011;58858;50.948;6.566;2022-09-24T05:51:17;12.25;;;6.00;;
71162;SDS011;58858;50.948;6.566;2022-09-24T06:01:18;8.45;;;5.68;;
71162;SDS011;58858;50.948;6.566;2022-09-24T06:11:19;10.00;;;4.97;;
71162;SDS011;58858;50.948;6.566;2022-09-24T06:21:24;12.90;;;5.10;;
71162;SDS011;58858;50.948;6.566;2022-09-24T06:31:25;8.45;;;5.20;;
71162;SDS011;58858;50.948;6.566;2022-09-24T06:41:26;11.65;;;6.40;;
71162;SDS011;58858;50.948;6.566;2022-09-24T06:51:27;10.68;;;5.82;;
71162;SDS011;58858;50.948;6.566;2022-09-24T07:01:28;12.02;;;6.45;;
71162;SDS011;58858;50.948;6.566;2022-09-24T07:11:29;9.68;;;5.88;;
71162;SDS011;58858;50.948;6.566;2022-09-24T07:21:30;16.25;;;6.55;;
71162;SDS011;58858;50.948;6.566;2022-09-24T07:31:31;10.95;;;6.28;;
71162;SDS011;58858;50.948;6.566;2022-09-24T07:41:35;12.37;;;6.67;;
71162;SDS011;58858;50.948;6.566;2022-09-24T07:51:38;9.10;;;5.95;;
71162;SDS011;58858;50.948;6.566;2022-09-24T08:01:39;8.05;;;6.18;;
71162;SDS011;58858;50.948;6.566;2022-09-24T08:11:40;14.60;;;7.25;;
71162;SDS011;58858;50.948;6.566;2022-09-24T08:21:42;9.57;;;6.28;;
71162;SDS011;58858;50.948;6.566;2022-09-24T08:31:43;12.98;;;7.95;;
71162;SDS011;58858;50.948;6.566;2022-09-24T08:41:51;11.35;;;7.57;;
71162;SDS011;58858;50.948;6.566;2022-09-24T08:52:05;10.35;;;7.10;;
71162;SDS011;58858;50.948;6.566;2022-09-24T09:12:47;12.70;;;8.60;;
71162;SDS011;58858;50.948;6.566;2022-09-24T09:23:02;16.40;;;8.35;;
71162;SDS011;58858;50.948;6.566;2022-09-24T09:33:22;16.95;;;9.55;;
71162;SDS011;58858;50.948;6.566;2022-09-24T09:43:44;16.58;;;8.10;;
71162;SDS011;58858;50.948;6.566;2022-09-24T09:53:58;11.02;;;8.05;;
71162;SDS011;58858;50.948;6.566;2022-09-24T10:04:01;13.02;;;7.75;;
71162;SDS011;58858;50.948;6.566;2022-09-24T10:14:04;12.13;;;6.63;;
71162;SDS011;58858;50.948;6.566;2022-09-24T10:24:13;10.82;;;7.07;;
71162;SDS011;58858;50.948;6.566;2022-09-24T10:34:27;10.38;;;7.38;;
71162;SDS011;58858;50.948;6.566;2022-09-24T10:44:31;11.60;;;7.43;;
71162;SDS011;58858;50.948;6.566;2022-09-24T10:54:42;14.75;;;7.05;;
71162;SDS011;58858;50.948;6.566;2022-09-24T11:04:58;10.02;;;6.03;;
71162;SDS011;58858;50.948;6.566;2022-09-24T11:46:31;11.50;;;6.65;;
71162;SDS011;58858;50.948;6.566;2022-09-24T11:56:54;10.75;;;6.40;;
71162;SDS011;58858;50.948;6.566;2022-09-24T12:07:20;10.25;;;6.90;;
71162;SDS011;58858;50.948;6.566;2022-09-24T12:17:35;10.60;;;7.32;;
71162;SDS011;58858;50.948;6.566;2022-09-24T12:27:44;11.23;;;7.22;;
71162;SDS011;58858;50.948;6.566;2022-09-24T12:37:47;11.55;;;8.27;;
71162;SDS011;58858;50.948;6.566;2022-09-24T12:57:58;15.25;;;9.68;;
71162;SDS011;58858;50.948;6.566;2022-09-24T13:08:23;11.70;;;8.57;;
71162;SDS011;58858;50.948;6.566;2022-09-24T13:18:24;12.45;;;7.75;;
71162;SDS011;58858;50.948;6.566;2022-09-24T13:28:26;15.20;;;9.27;;
71162;SDS011;58858;50.948;6.566;2022-09-24T13:38:33;13.55;;;8.85;;
71162;SDS011;58858;50.948;6.566;2022-09-24T13:48:39;9.52;;;7.65;;
71162;SDS011;58858;50.948;6.566;2022-09-24T13:58:46;10.27;;;7.30;;
71162;SDS011;58858;50.948;6.566;2022-09-24T14:08:50;11.43;;;6.43;;
71162;SDS011;58858;50.948;6.566;2022-09-24T14:19:01;11.68;;;6.85;;
71162;SDS011;58858;50.948;6.566;2022-09-24T14:29:09;13.48;;;9.00;;
71162;SDS011;58858;50.948;6.566;2022-09-24T14:39:16;11.02;;;7.05;;
71162;SDS011;58858;50.948;6.566;2022-09-24T14:49:28;10.20;;;7.43;;
71162;SDS011;58858;50.948;6.566;2022-09-24T14:59:34;12.50;;;8.02;;
71162;SDS011;58858;50.948;6.566;2022-09-24T15:09:36;13.52;;;7.55;;
71162;SDS011;58858;50.948;6.566;2022-09-24T15:19:37;11.02;;;8.27;;
71162;SDS011;58858;50.948;6.566;2022-09-24T15:29:42;16.43;;;9.93;;
71162;SDS011;58858;50.948;6.566;2022-09-24T15:39:43;18.50;;;9.68;;
71162;SDS011;58858;50.948;6.566;2022-09-24T15:49:48;14.18;;;9.07;;
71162;SDS011;58858;50.948;6.566;2022-09-24T15:59:50;23.73;;;11.20;;
71162;SDS011;58858;50.948;6.566;2022-09-24T16:09:51;25.48;;;10.70;;
71162;SDS011;58858;50.948;6.566;2022-09-24T16:19:52;16.90;;;11.18;;
71162;SDS011;58858;50.948;6.566;2022-09-24T16:29:53;15.70;;;9.27;;
71162;SDS011;58858;50.948;6.566;2022-09-24T16:39:54;12.55;;;9.93;;
71162;SDS011;58858;50.948;6.566;2022-09-24T16:49:55;12.27;;;8.88;;
71162;SDS011;58858;50.948;6.566;2022-09-24T16:59:56;16.23;;;11.05;;
71162;SDS011;58858;50.948;6.566;2022-09-24T17:09:57;14.10;;;9.75;;
71162;SDS011;58858;50.948;6.566;2022-09-24T17:20:15;12.70;;;9.55;;
71162;SDS011;58858;50.948;6.566;2022-09-24T17:30:16;16.95;;;10.38;;
71162;SDS011;58858;50.948;6.566;2022-09-24T17:40:17;17.08;;;11.73;;
71162;SDS011;58858;50.948;6.566;2022-09-24T17:50:19;14.38;;;9.95;;
71162;SDS011;58858;50.948;6.566;2022-09-24T18:00:20;16.25;;;11.73;;
71162;SDS011;58858;50.948;6.566;2022-09-24T18:10:21;16.70;;;13.48;;
71162;SDS011;58858;50.948;6.566;2022-09-24T18:20:22;18.52;;;14.65;;
71162;SDS011;58858;50.948;6.566;2022-09-24T18:30:24;25.35;;;18.20;;
71162;SDS011;58858;50.948;6.566;2022-09-24T18:40:25;24.30;;;16.83;;
71162;SDS011;58858;50.948;6.566;2022-09-24T18:50:29;22.33;;;17.02;;
71162;SDS011;58858;50.948;6.566;2022-09-24T19:00:31;23.90;;;17.77;;
71162;SDS011;58858;50.948;6.566;2022-09-24T19:10:50;21.83;;;16.80;;
71162;SDS011;58858;50.948;6.566;2022-09-24T19:20:55;22.65;;;14.95;;
71162;SDS011;58858;50.948;6.566;2022-09-24T19:30:56;21.35;;;14.82;;
71162;SDS011;58858;50.948;6.566;2022-09-24T19:51:04;21.20;;;16.35;;
71162;SDS011;58858;50.948;6.566;2022-09-24T20:01:06;22.08;;;16.80;;
71162;SDS011;58858;50.948;6.566;2022-09-24T20:11:10;23.38;;;18.30;;
71162;SDS011;58858;50.948;6.566;2022-09-24T20:21:15;26.70;;;18.77;;
71162;SDS011;58858;50.948;6.566;2022-09-24T20:31:17;25.15;;;19.02;;
71162;SDS011;58858;50.948;6.566;2022-09-24T20:51:25;30.02;;;21.08;;
71162;SDS011;58858;50.948;6.566;2022-09-24T21:01:29;30.75;;;22.45;;
71162;SDS011;58858;50.948;6.566;2022-09-24T21:11:30;24.73;;;19.35;;
71162;SDS011;58858;50.948;6.566;2022-09-24T21:21:33;22.02;;;16.70;;
71162;SDS011;58858;50.948;6.566;2022-09-24T21:31:38;21.13;;;13.77;;
71162;SDS011;58858;50.948;6.566;2022-09-24T21:41:41;18.45;;;12.85;;
71162;SDS011;58858;50.948;6.566;2022-09-24T21:51:43;23.88;;;14.68;;
71162;SDS011;58858;50.948;6.566;2022-09-24T22:01:45;18.02;;;13.50;;
71162;SDS011;58858;50.948;6.566;2022-09-24T22:11:46;13.80;;;11.18;;
71162;SDS011;58858;50.948;6.566;2022-09-24T22:21:47;14.07;;;10.07;;
71162;SDS011;58858;50.948;6.566;2022-09-24T22:31:48;14.32;;;10.27;;
71162;SDS011;58858;50.948;6.566;2022-09-24T22:41:49;13.82;;;10.88;;
71162;SDS011;58858;50.948;6.566;2022-09-24T22:51:52;19.02;;;11.30;;
71162;SDS011;58858;50.948;6.566;2022-09-24T23:01:53;14.07;;;10.85;;
71162;SDS011;58858;50.948;6.566;2022-09-24T23:11:54;16.38;;;11.52;;
71162;SDS011;58858;50.948;6.566;2022-09-24T23:21:57;18.70;;;12.18;;
71162;SDS011;58858;50.948;6.566;2022-09-24T23:31:58;20.05;;;11.68;;
71162;SDS011;58858;50.948;6.566;2022-09-24T23:41:59;19.60;;;14.50;;
71162;SDS011;58858;50.948;6.566;2022-09-24T23:52:01;22.77;;;16.45;;
